Current Weather

South Bend Intl

South Bend, Indiana (KSBN)

Report from: Friday, April 19, 2024 5:54 AM EDT
Current time: Friday, April 19, 2024 6:10 AM EDT

Nearby weather – Weather history – Daily summaries
Weather forecast

Temperature7.8°C (46.0°F)
Wind chill4.2°C (39.6°F)
Dew point6.1°C (43.0°F)
Winds 13 kts (6.7 m/s, 15 mph) Northwest (320°)
Wind gusts 20 kts (10.3 m/s, 23 mph)
Visibility9 mi. (14.5 km)
Clouds Few clouds 1,000 ft. (305 m)
Ceiling: Broken clouds 1,400 ft. (427 m)
Overcast 4,300 ft. (1,311 m)
Altimeter30.00 in.Hg (1016 mB)
Relative humidity89 %
Density altitude-819 ft. (-250 m)
Sea-level pressure101.6 kPa (1016 mB, 30.00 in.Hg)
Remarks Automated weather observing station with precipitation discriminator
Flight conditions Marginal Visual Meteorological Conditions
Raw dataKSBN 190954Z 32013G20KT 9SM FEW010 BKN014 OVC043 08/06 A3000 RMK AO2 SLP159 T00780061
An error has occurred. This application may no longer respond until reloaded. Reload 🗙